sensor_id;sensor_type;location;lat;lon;timestamp;P1;durP1;ratioP1;P2;durP2;ratioP2
18931;SDS011;9598;50.954;3.112;2023-04-24T00:04:14;7.00;;;6.30;;
18931;SDS011;9598;50.954;3.112;2023-04-24T00:09:17;7.00;;;6.30;;
18931;SDS011;9598;50.954;3.112;2023-04-24T00:14:20;6.28;;;5.68;;
18931;SDS011;9598;50.954;3.112;2023-04-24T00:19:23;7.13;;;5.47;;
18931;SDS011;9598;50.954;3.112;2023-04-24T00:24:25;6.15;;;5.57;;
18931;SDS011;9598;50.954;3.112;2023-04-24T00:29:28;7.93;;;5.97;;
18931;SDS011;9598;50.954;3.112;2023-04-24T00:34:30;8.40;;;6.80;;
18931;SDS011;9598;50.954;3.112;2023-04-24T00:39:33;7.20;;;6.60;;
18931;SDS011;9598;50.954;3.112;2023-04-24T00:44:36;9.38;;;8.35;;
18931;SDS011;9598;50.954;3.112;2023-04-24T00:49:39;11.93;;;9.60;;
18931;SDS011;9598;50.954;3.112;2023-04-24T00:54:41;12.70;;;11.23;;
18931;SDS011;9598;50.954;3.112;2023-04-24T00:59:45;12.23;;;11.00;;
18931;SDS011;9598;50.954;3.112;2023-04-24T01:04:48;13.93;;;12.32;;
18931;SDS011;9598;50.954;3.112;2023-04-24T01:09:51;13.65;;;12.25;;
18931;SDS011;9598;50.954;3.112;2023-04-24T01:14:55;13.82;;;12.32;;
18931;SDS011;9598;50.954;3.112;2023-04-24T01:19:58;13.98;;;12.57;;
18931;SDS011;9598;50.954;3.112;2023-04-24T01:25:02;13.60;;;12.20;;
18931;SDS011;9598;50.954;3.112;2023-04-24T01:30:06;13.90;;;12.60;;
18931;SDS011;9598;50.954;3.112;2023-04-24T01:35:09;13.65;;;12.25;;
18931;SDS011;9598;50.954;3.112;2023-04-24T01:40:13;13.98;;;12.30;;
18931;SDS011;9598;50.954;3.112;2023-04-24T01:45:16;12.98;;;11.60;;
18931;SDS011;9598;50.954;3.112;2023-04-24T01:50:18;11.52;;;10.32;;
18931;SDS011;9598;50.954;3.112;2023-04-24T01:55:21;12.23;;;9.77;;
18931;SDS011;9598;50.954;3.112;2023-04-24T02:00:23;14.98;;;11.20;;
18931;SDS011;9598;50.954;3.112;2023-04-24T02:05:27;14.82;;;10.38;;
18931;SDS011;9598;50.954;3.112;2023-04-24T02:10:31;9.25;;;8.13;;
18931;SDS011;9598;50.954;3.112;2023-04-24T02:15:33;7.57;;;5.32;;
18931;SDS011;9598;50.954;3.112;2023-04-24T02:20:37;7.63;;;4.65;;
18931;SDS011;9598;50.954;3.112;2023-04-24T02:25:41;4.40;;;3.97;;
18931;SDS011;9598;50.954;3.112;2023-04-24T02:30:43;7.10;;;4.53;;
18931;SDS011;9598;50.954;3.112;2023-04-24T02:35:45;6.15;;;5.00;;
18931;SDS011;9598;50.954;3.112;2023-04-24T02:40:49;7.03;;;5.95;;
18931;SDS011;9598;50.954;3.112;2023-04-24T02:45:51;13.32;;;8.40;;
18931;SDS011;9598;50.954;3.112;2023-04-24T02:50:53;11.68;;;9.75;;
18931;SDS011;9598;50.954;3.112;2023-04-24T02:55:56;15.88;;;12.35;;
18931;SDS011;9598;50.954;3.112;2023-04-24T03:00:59;17.95;;;13.43;;
18931;SDS011;9598;50.954;3.112;2023-04-24T03:06:01;15.05;;;11.20;;
18931;SDS011;9598;50.954;3.112;2023-04-24T03:11:07;14.63;;;11.23;;
18931;SDS011;9598;50.954;3.112;2023-04-24T03:16:09;16.20;;;12.38;;
18931;SDS011;9598;50.954;3.112;2023-04-24T03:21:11;15.95;;;12.50;;
18931;SDS011;9598;50.954;3.112;2023-04-24T03:26:16;13.55;;;12.10;;
18931;SDS011;9598;50.954;3.112;2023-04-24T03:31:31;15.00;;;11.63;;
18931;SDS011;9598;50.954;3.112;2023-04-24T03:36:33;16.58;;;11.13;;
18931;SDS011;9598;50.954;3.112;2023-04-24T03:41:38;12.63;;;10.57;;
18931;SDS011;9598;50.954;3.112;2023-04-24T03:46:54;14.25;;;10.35;;
18931;SDS011;9598;50.954;3.112;2023-04-24T03:51:58;12.05;;;9.48;;
18931;SDS011;9598;50.954;3.112;2023-04-24T03:57:03;14.63;;;9.82;;
18931;SDS011;9598;50.954;3.112;2023-04-24T04:02:07;14.45;;;9.85;;
18931;SDS011;9598;50.954;3.112;2023-04-24T04:07:09;14.73;;;10.18;;
18931;SDS011;9598;50.954;3.112;2023-04-24T04:12:13;12.63;;;9.60;;
18931;SDS011;9598;50.954;3.112;2023-04-24T04:17:15;13.00;;;10.45;;
18931;SDS011;9598;50.954;3.112;2023-04-24T04:22:18;14.73;;;10.23;;
18931;SDS011;9598;50.954;3.112;2023-04-24T04:27:25;13.38;;;10.27;;
18931;SDS011;9598;50.954;3.112;2023-04-24T04:32:37;18.40;;;12.57;;
18931;SDS011;9598;50.954;3.112;2023-04-24T04:37:39;16.08;;;12.50;;
18931;SDS011;9598;50.954;3.112;2023-04-24T04:43:05;18.25;;;12.95;;
18931;SDS011;9598;50.954;3.112;2023-04-24T04:48:16;15.73;;;12.90;;
18931;SDS011;9598;50.954;3.112;2023-04-24T04:53:19;17.27;;;12.75;;
18931;SDS011;9598;50.954;3.112;2023-04-24T04:58:22;19.08;;;13.10;;
18931;SDS011;9598;50.954;3.112;2023-04-24T05:03:29;16.08;;;12.25;;
18931;SDS011;9598;50.954;3.112;2023-04-24T05:08:38;19.33;;;13.02;;
18931;SDS011;9598;50.954;3.112;2023-04-24T05:13:46;20.63;;;14.38;;
18931;SDS011;9598;50.954;3.112;2023-04-24T05:18:56;19.30;;;14.52;;
18931;SDS011;9598;50.954;3.112;2023-04-24T05:24:04;19.88;;;14.05;;
18931;SDS011;9598;50.954;3.112;2023-04-24T05:29:29;23.00;;;14.88;;
18931;SDS011;9598;50.954;3.112;2023-04-24T05:34:33;19.25;;;14.10;;
18931;SDS011;9598;50.954;3.112;2023-04-24T05:39:35;16.75;;;13.82;;
18931;SDS011;9598;50.954;3.112;2023-04-24T05:44:39;18.05;;;13.07;;
18931;SDS011;9598;50.954;3.112;2023-04-24T05:49:41;18.52;;;12.13;;
18931;SDS011;9598;50.954;3.112;2023-04-24T05:54:43;14.93;;;10.20;;
18931;SDS011;9598;50.954;3.112;2023-04-24T05:59:49;13.43;;;10.60;;
18931;SDS011;9598;50.954;3.112;2023-04-24T06:04:53;15.90;;;11.18;;
18931;SDS011;9598;50.954;3.112;2023-04-24T06:09:56;18.48;;;10.57;;
18931;SDS011;9598;50.954;3.112;2023-04-24T06:15:00;15.82;;;10.80;;
18931;SDS011;9598;50.954;3.112;2023-04-24T06:20:23;14.40;;;10.68;;
18931;SDS011;9598;50.954;3.112;2023-04-24T06:25:26;14.82;;;9.88;;
18931;SDS011;9598;50.954;3.112;2023-04-24T06:30:29;14.27;;;9.52;;
18931;SDS011;9598;50.954;3.112;2023-04-24T06:35:32;15.27;;;9.68;;
18931;SDS011;9598;50.954;3.112;2023-04-24T06:40:34;11.50;;;8.85;;
18931;SDS011;9598;50.954;3.112;2023-04-24T06:45:37;12.00;;;8.85;;
18931;SDS011;9598;50.954;3.112;2023-04-24T06:50:39;17.25;;;9.40;;
18931;SDS011;9598;50.954;3.112;2023-04-24T06:55:42;13.15;;;8.25;;
18931;SDS011;9598;50.954;3.112;2023-04-24T07:00:46;15.02;;;8.05;;
18931;SDS011;9598;50.954;3.112;2023-04-24T07:05:48;14.95;;;7.90;;
18931;SDS011;9598;50.954;3.112;2023-04-24T07:10:51;13.32;;;7.75;;
18931;SDS011;9598;50.954;3.112;2023-04-24T07:15:55;11.82;;;7.40;;
18931;SDS011;9598;50.954;3.112;2023-04-24T07:20:57;11.48;;;7.22;;
18931;SDS011;9598;50.954;3.112;2023-04-24T07:25:59;12.18;;;6.07;;
18931;SDS011;9598;50.954;3.112;2023-04-24T07:31:02;11.32;;;7.22;;
18931;SDS011;9598;50.954;3.112;2023-04-24T07:36:04;11.50;;;6.70;;
18931;SDS011;9598;50.954;3.112;2023-04-24T07:41:07;8.10;;;6.05;;
18931;SDS011;9598;50.954;3.112;2023-04-24T07:46:10;11.80;;;5.70;;
18931;SDS011;9598;50.954;3.112;2023-04-24T07:51:12;11.27;;;5.55;;
18931;SDS011;9598;50.954;3.112;2023-04-24T07:56:14;12.85;;;6.43;;
18931;SDS011;9598;50.954;3.112;2023-04-24T08:01:18;10.75;;;5.80;;
18931;SDS011;9598;50.954;3.112;2023-04-24T08:06:20;7.38;;;6.13;;
18931;SDS011;9598;50.954;3.112;2023-04-24T08:11:22;13.82;;;7.07;;
18931;SDS011;9598;50.954;3.112;2023-04-24T08:16:26;10.13;;;6.60;;
18931;SDS011;9598;50.954;3.112;2023-04-24T08:21:28;12.02;;;6.85;;
18931;SDS011;9598;50.954;3.112;2023-04-24T08:26:30;13.88;;;6.70;;
18931;SDS011;9598;50.954;3.112;2023-04-24T08:31:34;10.95;;;6.85;;
18931;SDS011;9598;50.954;3.112;2023-04-24T08:36:36;13.13;;;8.00;;
18931;SDS011;9598;50.954;3.112;2023-04-24T08:41:41;15.38;;;8.05;;
18931;SDS011;9598;50.954;3.112;2023-04-24T08:46:46;12.00;;;8.38;;
18931;SDS011;9598;50.954;3.112;2023-04-24T08:51:49;13.65;;;9.82;;
18931;SDS011;9598;50.954;3.112;2023-04-24T08:56:53;12.50;;;10.30;;
18931;SDS011;9598;50.954;3.112;2023-04-24T09:02:03;15.25;;;11.48;;
18931;SDS011;9598;50.954;3.112;2023-04-24T09:07:06;12.70;;;9.43;;
18931;SDS011;9598;50.954;3.112;2023-04-24T09:12:09;16.10;;;10.35;;
18931;SDS011;9598;50.954;3.112;2023-04-24T09:17:13;14.07;;;9.43;;
18931;SDS011;9598;50.954;3.112;2023-04-24T09:22:15;11.43;;;8.48;;
18931;SDS011;9598;50.954;3.112;2023-04-24T09:27:17;13.48;;;8.80;;
18931;SDS011;9598;50.954;3.112;2023-04-24T09:32:21;11.65;;;9.00;;
18931;SDS011;9598;50.954;3.112;2023-04-24T09:37:29;11.27;;;8.93;;
18931;SDS011;9598;50.954;3.112;2023-04-24T09:42:31;11.27;;;9.27;;
18931;SDS011;9598;50.954;3.112;2023-04-24T09:47:36;13.38;;;10.38;;
18931;SDS011;9598;50.954;3.112;2023-04-24T09:52:39;11.77;;;9.65;;
18931;SDS011;9598;50.954;3.112;2023-04-24T09:57:47;12.45;;;8.50;;
18931;SDS011;9598;50.954;3.112;2023-04-24T10:02:52;11.82;;;8.52;;
18931;SDS011;9598;50.954;3.112;2023-04-24T10:07:57;10.77;;;8.43;;
18931;SDS011;9598;50.954;3.112;2023-04-24T10:13:01;11.55;;;8.77;;
18931;SDS011;9598;50.954;3.112;2023-04-24T10:18:06;10.88;;;7.90;;
18931;SDS011;9598;50.954;3.112;2023-04-24T10:23:09;13.23;;;7.70;;
18931;SDS011;9598;50.954;3.112;2023-04-24T10:28:12;8.10;;;6.53;;
18931;SDS011;9598;50.954;3.112;2023-04-24T10:33:16;9.25;;;5.88;;
18931;SDS011;9598;50.954;3.112;2023-04-24T10:38:21;9.13;;;5.88;;
18931;SDS011;9598;50.954;3.112;2023-04-24T10:43:25;5.80;;;5.18;;
18931;SDS011;9598;50.954;3.112;2023-04-24T10:48:29;7.78;;;5.32;;
18931;SDS011;9598;50.954;3.112;2023-04-24T10:53:31;7.80;;;5.10;;
18931;SDS011;9598;50.954;3.112;2023-04-24T10:58:37;7.68;;;5.50;;
18931;SDS011;9598;50.954;3.112;2023-04-24T11:03:42;10.52;;;4.97;;
18931;SDS011;9598;50.954;3.112;2023-04-24T11:08:58;6.65;;;5.47;;
18931;SDS011;9598;50.954;3.112;2023-04-24T11:14:06;7.82;;;5.20;;
18931;SDS011;9598;50.954;3.112;2023-04-24T11:19:18;7.85;;;5.07;;
18931;SDS011;9598;50.954;3.112;2023-04-24T11:24:24;7.30;;;5.15;;
18931;SDS011;9598;50.954;3.112;2023-04-24T11:29:41;10.48;;;5.18;;
18931;SDS011;9598;50.954;3.112;2023-04-24T11:34:47;6.28;;;3.80;;
18931;SDS011;9598;50.954;3.112;2023-04-24T11:39:50;9.45;;;4.20;;
18931;SDS011;9598;50.954;3.112;2023-04-24T11:44:54;6.25;;;4.65;;
18931;SDS011;9598;50.954;3.112;2023-04-24T11:49:59;5.18;;;3.70;;
18931;SDS011;9598;50.954;3.112;2023-04-24T11:55:01;5.57;;;3.72;;
18931;SDS011;9598;50.954;3.112;2023-04-24T12:00:04;5.95;;;4.60;;
18931;SDS011;9598;50.954;3.112;2023-04-24T12:05:20;6.60;;;4.82;;
18931;SDS011;9598;50.954;3.112;2023-04-24T12:10:22;5.90;;;3.95;;
18931;SDS011;9598;50.954;3.112;2023-04-24T12:15:26;8.38;;;4.03;;
18931;SDS011;9598;50.954;3.112;2023-04-24T12:20:30;5.13;;;3.75;;
18931;SDS011;9598;50.954;3.112;2023-04-24T12:25:33;3.58;;;3.17;;
18931;SDS011;9598;50.954;3.112;2023-04-24T12:30:40;4.78;;;2.92;;
18931;SDS011;9598;50.954;3.112;2023-04-24T12:35:46;3.67;;;3.20;;
18931;SDS011;9598;50.954;3.112;2023-04-24T12:41:00;5.22;;;3.70;;
18931;SDS011;9598;50.954;3.112;2023-04-24T12:46:03;4.53;;;3.90;;
18931;SDS011;9598;50.954;3.112;2023-04-24T12:51:07;4.55;;;3.78;;
18931;SDS011;9598;50.954;3.112;2023-04-24T12:56:09;7.20;;;3.67;;
18931;SDS011;9598;50.954;3.112;2023-04-24T13:01:11;5.57;;;3.15;;
18931;SDS011;9598;50.954;3.112;2023-04-24T13:06:15;4.65;;;3.45;;
18931;SDS011;9598;50.954;3.112;2023-04-24T13:11:17;3.08;;;2.78;;
18931;SDS011;9598;50.954;3.112;2023-04-24T13:16:19;3.25;;;2.75;;
18931;SDS011;9598;50.954;3.112;2023-04-24T13:21:22;4.13;;;2.50;;
18931;SDS011;9598;50.954;3.112;2023-04-24T13:26:26;3.55;;;2.80;;
18931;SDS011;9598;50.954;3.112;2023-04-24T13:31:28;2.83;;;2.40;;
18931;SDS011;9598;50.954;3.112;2023-04-24T13:36:32;6.40;;;2.95;;
18931;SDS011;9598;50.954;3.112;2023-04-24T13:41:34;3.80;;;2.90;;
18931;SDS011;9598;50.954;3.112;2023-04-24T13:46:36;3.75;;;2.58;;
18931;SDS011;9598;50.954;3.112;2023-04-24T13:51:40;4.93;;;2.92;;
18931;SDS011;9598;50.954;3.112;2023-04-24T13:56:42;3.67;;;3.05;;
18931;SDS011;9598;50.954;3.112;2023-04-24T14:01:45;4.10;;;2.78;;
18931;SDS011;9598;50.954;3.112;2023-04-24T14:06:49;3.83;;;3.22;;
18931;SDS011;9598;50.954;3.112;2023-04-24T14:11:51;4.40;;;2.63;;
18931;SDS011;9598;50.954;3.112;2023-04-24T14:16:53;4.30;;;3.00;;
18931;SDS011;9598;50.954;3.112;2023-04-24T14:21:57;3.80;;;2.63;;
18931;SDS011;9598;50.954;3.112;2023-04-24T14:26:59;5.80;;;3.42;;
18931;SDS011;9598;50.954;3.112;2023-04-24T14:32:01;4.82;;;3.30;;
18931;SDS011;9598;50.954;3.112;2023-04-24T14:37:05;3.70;;;2.70;;
18931;SDS011;9598;50.954;3.112;2023-04-24T14:42:07;2.80;;;1.85;;
18931;SDS011;9598;50.954;3.112;2023-04-24T14:47:09;4.07;;;2.10;;
18931;SDS011;9598;50.954;3.112;2023-04-24T14:52:12;2.50;;;2.22;;
18931;SDS011;9598;50.954;3.112;2023-04-24T14:57:14;5.43;;;3.53;;
18931;SDS011;9598;50.954;3.112;2023-04-24T15:02:16;2.63;;;2.30;;
18931;SDS011;9598;50.954;3.112;2023-04-24T15:07:20;4.57;;;2.53;;
18931;SDS011;9598;50.954;3.112;2023-04-24T15:12:22;2.17;;;2.03;;
18931;SDS011;9598;50.954;3.112;2023-04-24T15:17:25;3.85;;;2.85;;
18931;SDS011;9598;50.954;3.112;2023-04-24T15:22:28;3.63;;;2.50;;
18931;SDS011;9598;50.954;3.112;2023-04-24T15:27:38;4.32;;;2.47;;
18931;SDS011;9598;50.954;3.112;2023-04-24T15:32:42;3.53;;;2.63;;
18931;SDS011;9598;50.954;3.112;2023-04-24T15:37:45;6.82;;;3.22;;
18931;SDS011;9598;50.954;3.112;2023-04-24T15:42:47;3.22;;;2.83;;
18931;SDS011;9598;50.954;3.112;2023-04-24T15:47:50;3.78;;;3.03;;
18931;SDS011;9598;50.954;3.112;2023-04-24T15:52:53;3.42;;;2.60;;
18931;SDS011;9598;50.954;3.112;2023-04-24T15:57:56;4.35;;;2.70;;
18931;SDS011;9598;50.954;3.112;2023-04-24T16:02:58;4.45;;;2.53;;
18931;SDS011;9598;50.954;3.112;2023-04-24T16:08:01;4.55;;;2.58;;
18931;SDS011;9598;50.954;3.112;2023-04-24T16:13:04;3.13;;;2.83;;
18931;SDS011;9598;50.954;3.112;2023-04-24T16:18:06;4.10;;;2.65;;
18931;SDS011;9598;50.954;3.112;2023-04-24T16:23:09;2.40;;;2.20;;
18931;SDS011;9598;50.954;3.112;2023-04-24T16:28:12;3.50;;;2.85;;
18931;SDS011;9598;50.954;3.112;2023-04-24T16:33:14;5.43;;;3.20;;
18931;SDS011;9598;50.954;3.112;2023-04-24T16:38:17;4.63;;;3.17;;
18931;SDS011;9598;50.954;3.112;2023-04-24T16:43:19;5.07;;;3.03;;
18931;SDS011;9598;50.954;3.112;2023-04-24T16:48:21;3.17;;;2.85;;
18931;SDS011;9598;50.954;3.112;2023-04-24T16:53:25;5.80;;;3.55;;
18931;SDS011;9598;50.954;3.112;2023-04-24T16:58:27;5.85;;;3.60;;
18931;SDS011;9598;50.954;3.112;2023-04-24T17:03:29;4.60;;;2.80;;
18931;SDS011;9598;50.954;3.112;2023-04-24T17:08:33;5.18;;;3.00;;
18931;SDS011;9598;50.954;3.112;2023-04-24T17:13:35;3.22;;;2.45;;
18931;SDS011;9598;50.954;3.112;2023-04-24T17:18:37;5.20;;;3.60;;
18931;SDS011;9598;50.954;3.112;2023-04-24T17:23:41;5.25;;;3.47;;
18931;SDS011;9598;50.954;3.112;2023-04-24T17:28:43;5.60;;;3.35;;
18931;SDS011;9598;50.954;3.112;2023-04-24T17:33:45;4.47;;;3.53;;
18931;SDS011;9598;50.954;3.112;2023-04-24T17:38:48;6.63;;;4.00;;
18931;SDS011;9598;50.954;3.112;2023-04-24T17:43:51;7.22;;;3.47;;
18931;SDS011;9598;50.954;3.112;2023-04-24T17:48:53;3.50;;;2.88;;
18931;SDS011;9598;50.954;3.112;2023-04-24T17:53:57;4.10;;;2.78;;
18931;SDS011;9598;50.954;3.112;2023-04-24T17:58:59;4.10;;;3.40;;
18931;SDS011;9598;50.954;3.112;2023-04-24T18:04:01;4.28;;;3.55;;
18931;SDS011;9598;50.954;3.112;2023-04-24T18:09:05;3.85;;;3.22;;
18931;SDS011;9598;50.954;3.112;2023-04-24T18:14:07;4.13;;;2.95;;
18931;SDS011;9598;50.954;3.112;2023-04-24T18:19:09;6.03;;;3.45;;
18931;SDS011;9598;50.954;3.112;2023-04-24T18:24:13;4.65;;;3.83;;
18931;SDS011;9598;50.954;3.112;2023-04-24T18:29:15;6.03;;;4.22;;
18931;SDS011;9598;50.954;3.112;2023-04-24T18:34:17;9.30;;;8.05;;
18931;SDS011;9598;50.954;3.112;2023-04-24T18:39:21;8.30;;;4.85;;
18931;SDS011;9598;50.954;3.112;2023-04-24T18:44:23;5.90;;;4.00;;
18931;SDS011;9598;50.954;3.112;2023-04-24T18:49:26;11.65;;;7.60;;
18931;SDS011;9598;50.954;3.112;2023-04-24T18:54:29;15.95;;;11.65;;
18931;SDS011;9598;50.954;3.112;2023-04-24T18:59:32;9.32;;;7.20;;
18931;SDS011;9598;50.954;3.112;2023-04-24T19:04:34;7.47;;;5.78;;
18931;SDS011;9598;50.954;3.112;2023-04-24T19:09:37;6.47;;;5.68;;
18931;SDS011;9598;50.954;3.112;2023-04-24T19:14:40;7.32;;;4.97;;
18931;SDS011;9598;50.954;3.112;2023-04-24T19:19:42;7.95;;;7.15;;
18931;SDS011;9598;50.954;3.112;2023-04-24T19:24:45;7.50;;;6.43;;
18931;SDS011;9598;50.954;3.112;2023-04-24T19:29:48;5.80;;;5.13;;
18931;SDS011;9598;50.954;3.112;2023-04-24T19:34:51;8.02;;;6.47;;
18931;SDS011;9598;50.954;3.112;2023-04-24T19:39:54;7.35;;;5.45;;
18931;SDS011;9598;50.954;3.112;2023-04-24T19:44:56;6.22;;;5.63;;
18931;SDS011;9598;50.954;3.112;2023-04-24T19:49:58;6.82;;;5.78;;
18931;SDS011;9598;50.954;3.112;2023-04-24T19:55:02;7.75;;;5.45;;
18931;SDS011;9598;50.954;3.112;2023-04-24T20:00:05;7.13;;;4.75;;
18931;SDS011;9598;50.954;3.112;2023-04-24T20:05:08;7.88;;;5.55;;
18931;SDS011;9598;50.954;3.112;2023-04-24T20:10:12;6.07;;;5.47;;
18931;SDS011;9598;50.954;3.112;2023-04-24T20:15:14;7.22;;;6.38;;
18931;SDS011;9598;50.954;3.112;2023-04-24T20:20:16;7.00;;;5.60;;
18931;SDS011;9598;50.954;3.112;2023-04-24T20:25:19;8.80;;;6.40;;
18931;SDS011;9598;50.954;3.112;2023-04-24T20:30:22;8.90;;;5.93;;
18931;SDS011;9598;50.954;3.112;2023-04-24T20:35:24;6.47;;;5.85;;
18931;SDS011;9598;50.954;3.112;2023-04-24T20:40:28;9.27;;;6.22;;
18931;SDS011;9598;50.954;3.112;2023-04-24T20:45:30;6.30;;;5.70;;
18931;SDS011;9598;50.954;3.112;2023-04-24T20:50:32;7.20;;;5.70;;
18931;SDS011;9598;50.954;3.112;2023-04-24T20:55:39;8.75;;;6.63;;
18931;SDS011;9598;50.954;3.112;2023-04-24T21:00:41;12.55;;;7.30;;
18931;SDS011;9598;50.954;3.112;2023-04-24T21:05:43;10.20;;;5.82;;
18931;SDS011;9598;50.954;3.112;2023-04-24T21:10:47;9.68;;;6.10;;
18931;SDS011;9598;50.954;3.112;2023-04-24T21:15:51;9.55;;;6.22;;
18931;SDS011;9598;50.954;3.112;2023-04-24T21:20:56;8.95;;;6.40;;
18931;SDS011;9598;50.954;3.112;2023-04-24T21:25:59;8.90;;;5.78;;
18931;SDS011;9598;50.954;3.112;2023-04-24T21:31:01;7.13;;;5.88;;
18931;SDS011;9598;50.954;3.112;2023-04-24T21:36:04;11.07;;;6.75;;
18931;SDS011;9598;50.954;3.112;2023-04-24T21:41:07;13.07;;;6.35;;
18931;SDS011;9598;50.954;3.112;2023-04-24T21:46:10;9.18;;;6.35;;
18931;SDS011;9598;50.954;3.112;2023-04-24T21:51:12;9.75;;;6.70;;
18931;SDS011;9598;50.954;3.112;2023-04-24T21:56:17;10.23;;;6.60;;
18931;SDS011;9598;50.954;3.112;2023-04-24T22:01:19;8.88;;;5.85;;
18931;SDS011;9598;50.954;3.112;2023-04-24T22:06:21;12.63;;;7.28;;
18931;SDS011;9598;50.954;3.112;2023-04-24T22:11:24;11.85;;;6.85;;
18931;SDS011;9598;50.954;3.112;2023-04-24T22:16:27;11.85;;;7.13;;
18931;SDS011;9598;50.954;3.112;2023-04-24T22:21:29;11.23;;;6.97;;
18931;SDS011;9598;50.954;3.112;2023-04-24T22:26:34;11.98;;;7.47;;
18931;SDS011;9598;50.954;3.112;2023-04-24T22:31:36;10.85;;;7.80;;
18931;SDS011;9598;50.954;3.112;2023-04-24T22:36:38;12.00;;;7.47;;
18931;SDS011;9598;50.954;3.112;2023-04-24T22:41:42;10.23;;;7.82;;
18931;SDS011;9598;50.954;3.112;2023-04-24T22:46:44;10.70;;;7.65;;
18931;SDS011;9598;50.954;3.112;2023-04-24T22:51:46;8.30;;;7.13;;
18931;SDS011;9598;50.954;3.112;2023-04-24T22:56:50;9.90;;;7.47;;
18931;SDS011;9598;50.954;3.112;2023-04-24T23:01:52;12.00;;;7.80;;
18931;SDS011;9598;50.954;3.112;2023-04-24T23:06:54;13.20;;;8.30;;
18931;SDS011;9598;50.954;3.112;2023-04-24T23:11:57;12.43;;;7.95;;
18931;SDS011;9598;50.954;3.112;2023-04-24T23:17:00;10.00;;;7.22;;
18931;SDS011;9598;50.954;3.112;2023-04-24T23:22:03;11.55;;;7.65;;
18931;SDS011;9598;50.954;3.112;2023-04-24T23:27:06;10.38;;;8.35;;
18931;SDS011;9598;50.954;3.112;2023-04-24T23:32:08;10.63;;;7.85;;
18931;SDS011;9598;50.954;3.112;2023-04-24T23:37:10;13.80;;;8.70;;
18931;SDS011;9598;50.954;3.112;2023-04-24T23:42:14;12.80;;;7.72;;
18931;SDS011;9598;50.954;3.112;2023-04-24T23:47:16;11.43;;;5.82;;
18931;SDS011;9598;50.954;3.112;2023-04-24T23:52:18;11.63;;;6.00;;
18931;SDS011;9598;50.954;3.112;2023-04-24T23:57:22;14.60;;;6.50;;
